Terminal Aerodrome Forecast
Issued by NWS

Home | Current Version | Previous Version | Graphics & Text | Print | Product List | Glossary On
Versions: 1 2 3 4 5 6 7 8 9 10 11 12 13
000
FTUS43 KGRB 301700
TAFAUW
TAF
KAUW 301734Z 3018/0118 36008G17KT P6SM SKC
     FM302100 03005KT P6SM SKC
     FM010300 00000KT P6SM SKC
     FM011600 24005KT P6SM FEW040 BKN200=

USA.gov is the U.S. government's official web portal to all federal, state and local government web resources and services.